Home   Weather   USA   Appleton   Past weeks
Flag for USA

Past Weather in Appleton, Wisconsin, USA — Yesterday and Last 2 Weeks

Currently: 55 °F. Scattered clouds. (Weather station: Appleton / Outagamie, USA). See more current weather

Past Weather in Appleton — Graph

°F

Appleton Temperature Yesterday

Maximum temperature yesterday: 59 °F (at 3:45 pm)
Minimum temperature yesterday: 39 °F (at 6:45 am)
Average temperature yesterday: 47 °F

High & Low Weather Summary for the Past Weeks

 TemperatureHumidityPressure
High81 °F (Oct 1, 2:45 pm)100% (Oct 3, 3:35 am)30.32 "Hg (Oct 3, 3:35 am)
Low37 °F (Oct 16, 4:15 am)45% (Oct 15, 3:45 pm)29.60 "Hg (Oct 10, 2:45 pm)
Average61 °F85%29.93 "Hg
* Reported Oct 1 11:45 am — Oct 16 11:45 am, Appleton. Weather by CustomWeather, © 2021

Note: Actual official high and low records may vary slightly from our data, if they occured in-between our weather recording intervals... More about our weather records

Appleton Weather History for the Previous 24 Hours

Scroll right to see more
 ConditionsComfort  
Time TempWeatherWind HumidityBarometerVisibility
11:45 am
Sat, Oct 16
52 °FScattered clouds.17 mph54%29.92 "Hg10 mi
10:45 am50 °FScattered clouds.20 mph62%29.92 "Hg10 mi
9:45 am46 °FScattered clouds.14 mph76%29.91 "Hg10 mi
8:45 am43 °FScattered clouds.10 mph81%29.91 "Hg10 mi
7:45 am37 °FPassing clouds.9 mph93%29.90 "Hg10 mi
6:45 am37 °FPassing clouds.7 mph93%29.89 "Hg10 mi
5:45 am37 °FClear.8 mph93%29.89 "Hg10 mi
5:20 am39 °FClear.7 mph87%29.88 "Hg10 mi
4:55 am37 °FClear.8 mph87%29.88 "Hg10 mi
4:15 am37 °FClear.9 mph87%29.87 "Hg10 mi
3:55 am39 °FClear.9 mph81%29.87 "Hg10 mi
3:15 am39 °FClear.9 mph81%29.87 "Hg10 mi
2:35 am41 °FClear.9 mph76%29.87 "Hg10 mi
2:15 am41 °FClear.9 mph76%29.88 "Hg10 mi
1:55 am41 °FClear.8 mph76%29.88 "Hg10 mi
1:35 am41 °FClear.9 mph76%29.87 "Hg10 mi
1:15 am41 °FClear.7 mph76%29.87 "Hg10 mi
12:55 am41 °FClear.7 mph76%29.87 "Hg10 mi
12:35 am41 °FClear.8 mph76%29.87 "Hg10 mi
12:15 am43 °FClear.9 mph71%29.87 "Hg10 mi
11:55 pm
Fri, Oct 15
43 °FClear.8 mph71%29.87 "Hg10 mi
11:35 pm43 °FClear.9 mph71%29.87 "Hg10 mi
11:15 pm43 °FClear.8 mph71%29.87 "Hg10 mi
10:55 pm43 °FClear.7 mph71%29.87 "Hg10 mi
9:45 pm45 °FPassing clouds.9 mph71%29.88 "Hg10 mi
8:45 pm48 °FPassing clouds.8 mph62%29.87 "Hg10 mi
7:45 pm50 °FPassing clouds.8 mph62%29.86 "Hg10 mi
5:45 pm55 °FScattered clouds.6 mph51%29.85 "Hg10 mi
4:45 pm57 °FScattered clouds.7 mph48%29.84 "Hg10 mi
3:45 pm59 °FBroken clouds.10 mph45%29.86 "Hg10 mi
2:45 pm57 °FBroken clouds.6 mph51%29.86 "Hg10 mi
1:45 pm54 °FBroken clouds.6 mph58%29.88 "Hg10 mi
Weather by CustomWeather, © 2021

See weather overview